Time;durP1;ratioP1;P1;durP2;ratioP2;P2;SDS_P1;SDS_P2;PMS_P1;PMS_P2;Temp;Humidity;BMP_temperature;BMP_pressure;BME280_temperature;BME280_humidity;BME280_pressure;Samples;Min_cycle;Max_cycle;Signal;HPM_P1;HPM_P2
2021/10/18 00:01:18;;;;;;;17.25;10.02;;;;;;;-142.75;100.00;77739.75;5030722;28;20025;-67
2021/10/18 00:03:43;;;;;;;17.80;9.95;;;;;;;-142.75;100.00;77729.88;5055967;22;20049;-66
2021/10/18 00:06:09;;;;;;;18.40;9.95;;;;;;;-142.75;100.00;77737.78;5027072;28;20096;-68
2021/10/18 00:08:34;;;;;;;19.13;9.90;;;;;;;-142.75;100.00;77729.88;5028380;28;20036;-68
2021/10/18 00:10:59;;;;;;;15.77;9.80;;;;;;;-142.75;100.00;77725.97;5030560;28;20075;-68
2021/10/18 00:13:25;;;;;;;14.18;9.38;;;;;;;-142.75;100.00;77751.56;5030329;28;20278;-68
2021/10/18 00:15:50;;;;;;;13.13;8.85;;;;;;;-142.75;100.00;77737.78;5029897;28;20072;-67
2021/10/18 00:18:16;;;;;;;15.63;9.45;;;;;;;-142.75;99.63;77757.47;5029783;28;20391;-67
2021/10/18 00:20:42;;;;;;;17.35;10.20;;;;;;;-142.75;99.46;77753.53;5030388;28;20069;-68
2021/10/18 00:23:09;;;;;;;14.30;9.23;;;;;;;-142.75;100.00;77757.47;5030068;28;20026;-68
2021/10/18 00:25:34;;;;;;;14.68;9.57;;;;;;;-142.75;100.00;77765.34;5027844;28;20506;-68
2021/10/18 00:27:59;;;;;;;15.95;9.80;;;;;;;-142.75;100.00;77763.38;5029291;28;20068;-68
2021/10/18 00:30:25;;;;;;;21.05;10.20;;;;;;;-142.75;100.00;77763.38;5030220;28;20059;-68
2021/10/18 00:32:50;;;;;;;13.63;9.48;;;;;;;-142.75;100.00;77771.25;5030503;28;20394;-69
2021/10/18 00:35:15;;;;;;;16.27;10.23;;;;;;;-142.75;100.00;77775.19;5029828;28;20108;-69
2021/10/18 00:37:41;;;;;;;14.13;9.60;;;;;;;-142.75;100.00;77775.19;5030026;28;20025;-69
2021/10/18 00:40:08;;;;;;;19.35;10.48;;;;;;;-142.75;100.00;77767.31;5029817;28;20108;-69
2021/10/18 00:42:33;;;;;;;20.17;11.75;;;;;;;-142.75;100.00;77771.25;5029915;28;20372;-69
2021/10/18 00:44:59;;;;;;;18.42;10.25;;;;;;;-142.75;100.00;77777.16;5029424;28;20033;-69
2021/10/18 00:47:24;;;;;;;15.38;10.07;;;;;;;-142.75;100.00;77773.22;5029973;28;20079;-69
2021/10/18 00:49:49;;;;;;;16.98;10.05;;;;;;;-142.75;100.00;77775.19;5028742;28;20033;-69
2021/10/18 00:52:17;;;;;;;15.93;9.77;;;;;;;-142.75;100.00;77783.06;5029824;28;20027;-68
2021/10/18 00:54:45;;;;;;;20.77;11.02;;;;;;;-142.75;100.00;77787.00;5029141;28;20029;-68
2021/10/18 00:57:11;;;;;;;14.50;9.27;;;;;;;-142.75;100.00;77792.91;5029716;28;20033;-69
2021/10/18 00:59:36;;;;;;;17.80;9.88;;;;;;;-142.75;100.00;77792.91;5028333;28;20037;-69
2021/10/18 01:02:02;;;;;;;22.85;12.15;;;;;;;-142.75;100.00;77798.81;5028329;28;20047;-69
2021/10/18 01:04:28;;;;;;;;;;;;;;;-142.75;100.00;77790.94;5030061;28;20372;-68
2021/10/18 01:06:55;;;;;;;18.95;10.18;;;;;;;-142.75;100.00;77794.88;5028305;28;20012;-69
2021/10/18 01:09:20;;;;;;;15.25;9.05;;;;;;;-142.75;100.00;77790.94;5029559;28;20029;-68
2021/10/18 01:11:46;;;;;;;16.10;10.90;;;;;;;-142.75;100.00;77792.91;5028278;28;20075;-68
2021/10/18 01:14:11;;;;;;;17.45;9.82;;;;;;;-142.75;100.00;77798.81;5028882;28;20104;-69
2021/10/18 01:16:36;;;;;;;17.83;10.73;;;;;;;-142.75;100.00;77790.94;5029298;28;20037;-68
2021/10/18 01:19:12;;;;;;;20.13;10.63;;;;;;;-142.75;100.00;77798.81;5029782;28;20107;-68
2021/10/18 01:21:39;;;;;;;15.75;10.27;;;;;;;-142.75;100.00;77806.69;5027237;28;20855;-69
2021/10/18 01:24:04;;;;;;;17.20;9.80;;;;;;;-142.75;100.00;77790.94;5029096;28;20053;-69
2021/10/18 01:26:29;;;;;;;16.50;10.23;;;;;;;-142.75;100.00;77796.84;5027972;28;20056;-69
2021/10/18 01:28:55;;;;;;;16.92;10.00;;;;;;;-142.75;100.00;77800.78;5029295;28;20399;-68
2021/10/18 01:31:20;;;;;;;12.88;9.30;;;;;;;-142.75;100.00;77794.88;5029342;28;20048;-69
2021/10/18 01:33:46;;;;;;;19.15;11.05;;;;;;;-142.75;100.00;77798.81;5028178;28;20029;-67
2021/10/18 01:36:11;;;;;;;;;;;;;;;-142.75;100.00;77804.72;5029707;28;20030;-69
2021/10/18 01:38:37;;;;;;;17.27;10.48;;;;;;;-142.75;100.00;77812.59;5033223;28;20017;-69
2021/10/18 01:41:02;;;;;;;21.35;10.63;;;;;;;-142.75;100.00;77804.72;5032083;28;20029;-69
2021/10/18 01:43:27;;;;;;;15.00;10.13;;;;;;;-142.75;100.00;77802.75;5032885;28;20399;-68
2021/10/18 01:45:52;;;;;;;17.65;10.45;;;;;;;-142.75;100.00;77802.75;5033036;28;20505;-68
2021/10/18 01:48:18;;;;;;;18.00;10.48;;;;;;;-142.75;100.00;77806.69;5033434;28;20026;-68
2021/10/18 01:50:43;;;;;;;17.08;10.38;;;;;;;-142.75;100.00;77806.69;5033183;28;20029;-70
2021/10/18 01:53:08;;;;;;;15.93;10.88;;;;;;;-142.75;100.00;77806.69;5031671;28;20044;-69
2021/10/18 01:55:34;;;;;;;15.68;11.55;;;;;;;-142.75;100.00;77810.63;5031469;28;20025;-68
2021/10/18 01:57:59;;;;;;;17.98;11.20;;;;;;;-142.75;100.00;77810.63;5031598;28;20458;-69
2021/10/18 02:00:24;;;;;;;18.67;10.88;;;;;;;-142.75;100.00;77812.59;5033052;28;20092;-69
2021/10/18 02:02:49;;;;;;;18.50;11.88;;;;;;;-142.75;100.00;77826.38;5032871;28;20053;-69
2021/10/18 02:05:16;;;;;;;21.98;11.95;;;;;;;-142.75;100.00;77824.41;5052638;28;20028;-68
2021/10/18 02:07:42;;;;;;;19.27;12.00;;;;;;;-142.75;100.00;77836.22;5051322;28;20029;-69
2021/10/18 02:10:07;;;;;;;;;;;;;;;-142.75;100.00;77834.25;5053001;28;20029;-68
2021/10/18 02:12:33;;;;;;;19.05;11.60;;;;;;;-142.75;100.00;77844.09;5052220;28;19912;-69
2021/10/18 02:14:58;;;;;;;18.20;11.60;;;;;;;-142.75;100.00;77838.19;5052051;28;20049;-68
2021/10/18 02:17:23;;;;;;;18.73;11.80;;;;;;;-142.75;100.00;77838.19;5052483;28;20279;-69
2021/10/18 02:19:49;;;;;;;20.30;13.15;;;;;;;-142.75;100.00;77844.09;5052635;28;20314;-69
2021/10/18 02:22:14;;;;;;;25.83;12.60;;;;;;;-142.75;100.00;77850.00;5052294;28;20066;-69
2021/10/18 02:24:39;;;;;;;21.88;13.48;;;;;;;-142.75;100.00;77865.75;5051916;28;20032;-69
2021/10/18 02:27:04;;;;;;;17.67;12.25;;;;;;;-142.75;100.00;77863.78;5052263;28;20487;-69
2021/10/18 02:29:30;;;;;;;20.23;13.43;;;;;;;-142.75;100.00;77877.56;5052247;28;20067;-69
2021/10/18 02:31:55;;;;;;;21.65;13.25;;;;;;;-142.75;100.00;77885.44;5051996;28;20048;-68
2021/10/18 02:34:20;;;;;;;23.50;13.50;;;;;;;-142.75;100.00;77885.44;5052229;28;20037;-69
2021/10/18 02:36:45;;;;;;;18.80;14.48;;;;;;;-142.75;100.00;77897.25;5052079;28;20479;-69
2021/10/18 02:39:11;;;;;;;24.88;13.60;;;;;;;-142.75;100.00;77889.38;5052034;28;20163;-69
2021/10/18 02:41:36;;;;;;;22.52;13.60;;;;;;;-142.75;100.00;77899.22;5051673;28;20394;-68
2021/10/18 02:44:02;;;;;;;21.85;12.77;;;;;;;-142.75;100.00;77905.13;5051648;28;20107;-69
2021/10/18 02:46:27;;;;;;;23.90;14.73;;;;;;;-142.75;100.00;77911.06;5051969;28;20021;-69
2021/10/18 02:48:52;;;;;;;20.88;12.85;;;;;;;-142.75;100.00;77905.13;5051313;28;20033;-69
2021/10/18 02:51:18;;;;;;;19.83;12.85;;;;;;;-142.75;100.00;77916.97;5051760;28;20568;-68
2021/10/18 02:53:43;;;;;;;21.88;13.23;;;;;;;-142.75;100.00;77915.00;5051614;28;20025;-69
2021/10/18 02:56:08;;;;;;;22.03;13.13;;;;;;;-142.75;100.00;77926.81;5050162;28;20029;-69
2021/10/18 02:58:34;;;;;;;24.50;13.50;;;;;;;-142.75;100.00;77944.53;5032263;28;20276;-68
2021/10/18 03:01:00;;;;;;;18.58;13.02;;;;;;;-142.75;100.00;77964.22;5031824;28;20068;-68
2021/10/18 03:03:25;;;;;;;23.27;14.30;;;;;;;-142.75;100.00;77974.06;5032045;28;20475;-70
2021/10/18 03:05:50;;;;;;;21.70;12.07;;;;;;;-142.75;100.00;77976.03;5030520;28;20035;-69
2021/10/18 03:08:16;;;;;;;23.70;12.57;;;;;;;-142.75;100.00;77989.81;5031565;28;20029;-68
2021/10/18 03:10:41;;;;;;;23.98;14.60;;;;;;;-142.75;100.00;77991.78;5030428;28;20023;-69
2021/10/18 03:13:07;;;;;;;19.48;13.52;;;;;;;-142.75;100.00;78001.63;5031570;28;20467;-69
2021/10/18 03:15:32;;;;;;;;;;;;;;;-142.75;100.00;77993.75;5031538;28;20476;-69
2021/10/18 03:17:58;;;;;;;20.13;13.77;;;;;;;-142.75;100.00;78001.63;5031508;28;19967;-69
2021/10/18 03:20:23;;;;;;;23.40;14.23;;;;;;;-142.75;100.00;77999.66;5032156;28;20025;-69
2021/10/18 03:22:48;;;;;;;23.43;14.93;;;;;;;-142.75;100.00;78009.50;5031511;28;20021;-69
2021/10/18 03:25:15;;;;;;;23.80;13.23;;;;;;;-142.75;100.00;78019.34;5030994;28;20346;-69
2021/10/18 03:27:40;;;;;;;22.85;13.32;;;;;;;-142.75;100.00;78033.13;5031241;28;20282;-69
2021/10/18 03:30:06;;;;;;;24.10;14.32;;;;;;;-142.75;100.00;78050.84;5030001;28;20026;-69
2021/10/18 03:32:31;;;;;;;;;;;;;;;-142.75;100.00;78070.56;5030242;28;20059;-69
2021/10/18 03:34:57;;;;;;;26.35;14.00;;;;;;;-142.75;100.00;78082.38;5029490;28;19917;-69
2021/10/18 03:37:22;;;;;;;26.30;16.52;;;;;;;-142.75;100.00;78084.34;5031165;28;20395;-68
2021/10/18 03:39:47;;;;;;;23.98;15.27;;;;;;;-142.75;100.00;78090.25;5031180;28;20491;-69
2021/10/18 03:42:13;;;;;;;28.95;15.70;;;;;;;-142.75;100.00;78102.06;5030969;28;20029;-69
2021/10/18 03:44:38;;;;;;;29.27;16.08;;;;;;;-142.75;100.00;78090.25;5029235;28;20017;-69
2021/10/18 03:47:03;;;;;;;25.55;15.00;;;;;;;-142.75;100.00;78096.16;5031027;28;20109;-68
2021/10/18 03:49:29;;;;;;;27.52;17.33;;;;;;;-142.75;100.00;78098.13;5031210;28;20100;-69
2021/10/18 03:51:54;;;;;;;26.48;14.88;;;;;;;-142.75;100.00;78098.13;5031351;28;20033;-69
2021/10/18 03:54:20;;;;;;;22.55;14.90;;;;;;;-142.75;100.00;78113.88;5029028;28;20025;-68
2021/10/18 03:56:45;;;;;;;23.08;15.18;;;;;;;-142.75;100.00;78115.84;5030658;28;20368;-69
2021/10/18 03:59:10;;;;;;;20.73;15.07;;;;;;;-142.75;100.00;78123.72;5030759;28;20022;-69
2021/10/18 04:01:36;;;;;;;25.60;15.18;;;;;;;-142.75;100.00;78129.63;5030662;28;20043;-69
2021/10/18 04:04:01;;;;;;;26.25;15.05;;;;;;;-142.75;100.00;78149.31;5029962;28;20033;-67
2021/10/18 04:06:26;;;;;;;24.63;15.38;;;;;;;-142.75;100.00;78143.41;5030695;28;20071;-69
2021/10/18 04:08:54;;;;;;;27.57;15.37;;;;;;;-142.75;100.00;78155.22;5030606;28;20017;-69
2021/10/18 04:11:19;;;;;;;26.57;16.13;;;;;;;-142.75;100.00;78157.19;5030232;28;20831;-68
2021/10/18 04:13:44;;;;;;;29.85;18.10;;;;;;;-142.75;100.00;78169.00;5030196;28;20100;-69
2021/10/18 04:16:10;;;;;;;25.73;15.95;;;;;;;-142.75;100.00;78165.06;5029106;28;20057;-69
2021/10/18 04:18:35;;;;;;;24.67;16.23;;;;;;;-142.75;100.00;78170.97;5029312;28;20033;-69
2021/10/18 04:21:00;;;;;;;33.85;16.95;;;;;;;-142.75;100.00;78180.81;5030606;28;20032;-68
2021/10/18 04:23:27;;;;;;;23.77;16.50;;;;;;;-142.75;100.00;78186.75;5030148;28;20104;-69
2021/10/18 04:25:52;;;;;;;;;;;;;;;-142.75;100.00;78184.78;5030302;28;20450;-69
2021/10/18 04:28:18;;;;;;;27.13;16.63;;;;;;;-142.75;100.00;78176.88;5029980;28;19912;-69
2021/10/18 04:30:43;;;;;;;29.50;17.58;;;;;;;-142.75;100.00;78174.91;5030198;28;20029;-69
2021/10/18 04:33:08;;;;;;;26.08;18.67;;;;;;;-142.75;100.00;78165.06;5030122;28;20045;-69
2021/10/18 04:35:34;;;;;;;26.67;17.35;;;;;;;-142.75;100.00;78161.13;5029716;28;20029;-69
2021/10/18 04:37:59;;;;;;;27.65;18.10;;;;;;;-142.75;100.00;78155.22;5029796;28;20494;-68
2021/10/18 04:40:24;;;;;;;31.98;19.02;;;;;;;-142.75;100.00;78157.19;5028468;28;20479;-69
2021/10/18 04:42:50;;;;;;;29.98;18.88;;;;;;;-142.75;100.00;78147.34;5030040;28;20033;-69
2021/10/18 04:45:15;;;;;;;31.87;18.70;;;;;;;-142.75;100.00;78149.31;5028216;28;20064;-69
2021/10/18 04:47:46;;;;;;;28.80;19.30;;;;;;;-142.75;100.00;78139.47;5029638;28;20275;-69
2021/10/18 04:50:11;;;;;;;31.13;19.23;;;;;;;-142.75;100.00;78131.59;5028847;28;20029;-68
2021/10/18 04:52:36;;;;;;;33.42;19.00;;;;;;;-142.75;100.00;78121.75;5030247;28;20377;-69
2021/10/18 04:55:02;;;;;;;28.47;19.10;;;;;;;-142.75;100.00;78098.13;5029224;28;20033;-70
2021/10/18 04:57:28;;;;;;;25.25;17.05;;;;;;;-142.75;100.00;78102.06;5028460;28;20287;-69
2021/10/18 04:59:53;;;;;;;25.47;17.90;;;;;;;-142.75;100.00;78084.34;5029688;28;20406;-68
2021/10/18 05:02:18;;;;;;;27.83;19.00;;;;;;;-142.75;100.00;78084.34;5029107;28;20276;-69
2021/10/18 05:04:43;;;;;;;31.33;18.02;;;;;;;-142.75;100.00;78090.25;5027898;28;20017;-69
2021/10/18 05:07:09;;;;;;;27.10;17.63;;;;;;;-142.75;100.00;78088.28;5029463;28;20621;-69
2021/10/18 05:09:35;;;;;;;27.33;17.33;;;;;;;-142.75;100.00;78076.47;5028269;28;20268;-69
2021/10/18 05:12:03;;;;;;;28.45;17.30;;;;;;;-142.75;100.00;78084.34;5029103;28;20337;-69
2021/10/18 05:14:28;;;;;;;30.23;18.42;;;;;;;-142.75;100.00;78096.16;5027814;28;20566;-69
2021/10/18 05:16:55;;;;;;;26.55;17.15;;;;;;;-142.75;100.00;78100.09;5029598;28;20117;-69
2021/10/18 05:19:20;;;;;;;23.17;16.07;;;;;;;-142.75;100.00;78119.78;5028463;28;20116;-69
2021/10/18 05:21:46;;;;;;;28.35;18.63;;;;;;;-142.75;100.00;78123.72;5029806;28;20113;-69
2021/10/18 05:24:11;;;;;;;27.53;16.87;;;;;;;-142.75;100.00;78123.72;5027732;28;20037;-70
2021/10/18 05:26:36;;;;;;;29.70;16.90;;;;;;;-142.75;100.00;78137.50;5029121;28;20276;-67
2021/10/18 05:29:03;;;;;;;27.70;17.45;;;;;;;-142.75;100.00;78149.31;5029408;28;20029;-67
2021/10/18 05:31:28;;;;;;;27.30;16.75;;;;;;;-142.75;100.00;78165.06;5029266;28;20030;-67
2021/10/18 05:33:53;;;;;;;30.60;18.35;;;;;;;-142.75;100.00;78163.09;5028519;28;20029;-67
2021/10/18 05:36:19;;;;;;;33.88;17.95;;;;;;;-142.75;100.00;78172.94;5029242;28;20638;-66
2021/10/18 05:38:44;;;;;;;26.10;18.45;;;;;;;-142.75;100.00;78153.25;5029767;28;20017;-67
2021/10/18 05:41:10;;;;;;;32.05;17.88;;;;;;;-142.75;100.00;78151.28;5028230;28;20518;-67
2021/10/18 05:43:36;;;;;;;30.80;18.33;;;;;;;-142.75;100.00;78153.25;5028190;28;20025;-67
2021/10/18 05:46:01;;;;;;;28.73;17.80;;;;;;;-142.75;100.00;78157.19;5028302;28;20048;-67
2021/10/18 05:48:27;;;;;;;29.48;17.85;;;;;;;-142.75;100.00;78165.06;5027456;28;20024;-67
2021/10/18 05:50:52;;;;;;;25.50;17.13;;;;;;;-142.75;100.00;78167.03;5028224;28;20037;-67
2021/10/18 05:53:17;;;;;;;28.33;17.88;;;;;;;-142.75;100.00;78178.84;5027961;28;20041;-67
2021/10/18 05:55:43;;;;;;;32.10;17.88;;;;;;;-142.75;100.00;78192.66;5026683;28;20144;-67
2021/10/18 05:58:09;;;;;;;28.38;18.48;;;;;;;-142.75;100.00;78196.59;5028240;28;20021;-67
2021/10/18 06:00:39;;;;;;;29.00;18.03;;;;;;;-142.75;100.00;78192.66;5026820;28;20061;-67
2021/10/18 06:03:05;;;;;;;31.27;17.80;;;;;;;-142.75;100.00;78198.56;5028141;28;20499;-66
2021/10/18 06:05:30;;;;;;;28.35;17.52;;;;;;;-142.75;100.00;78194.63;5030949;22;20050;-72
2021/10/18 06:08:07;;;;;;;31.45;19.35;;;;;;;-142.75;100.00;78176.88;5022657;28;20109;-69
2021/10/18 06:10:33;;;;;;;33.45;17.73;;;;;;;-142.75;100.00;78188.72;5010068;28;20113;-68
2021/10/18 06:12:59;;;;;;;32.87;19.57;;;;;;;-142.75;100.00;78194.63;5009770;28;20029;-67
2021/10/18 06:15:24;;;;;;;30.52;19.13;;;;;;;-142.75;100.00;78188.72;5009585;28;20030;-67
2021/10/18 06:17:49;;;;;;;35.10;20.67;;;;;;;-142.75;100.00;78194.63;5012576;28;20028;-67
2021/10/18 06:20:15;;;;;;;33.17;20.83;;;;;;;-142.75;100.00;78190.69;5029611;28;20497;-67
2021/10/18 06:22:40;;;;;;;32.97;21.35;;;;;;;-142.75;100.00;78188.72;5029615;28;20115;-66
2021/10/18 06:25:06;;;;;;;38.25;20.95;;;;;;;-142.75;100.00;78198.56;5027881;28;20488;-67
2021/10/18 06:27:32;;;;;;;34.30;22.47;;;;;;;-142.75;100.00;78182.81;5013431;28;20034;-69
2021/10/18 06:29:57;;;;;;;34.10;19.52;;;;;;;-142.75;100.00;78172.94;5012011;28;20498;-68
2021/10/18 06:32:22;;;;;;;33.60;21.02;;;;;;;-142.75;100.00;78155.22;5013174;28;20091;-69
2021/10/18 06:34:48;;;;;;;34.58;21.48;;;;;;;-142.75;100.00;78145.38;5012856;28;20053;-69
2021/10/18 06:37:13;;;;;;;35.80;21.42;;;;;;;-142.75;100.00;78125.69;5012397;28;20024;-69
2021/10/18 06:39:38;;;;;;;35.78;20.42;;;;;;;-142.75;100.00;78133.56;5013697;28;20395;-69
2021/10/18 06:42:04;;;;;;;34.22;20.85;;;;;;;-142.75;100.00;78133.56;5013705;28;20029;-68
2021/10/18 06:44:29;;;;;;;35.83;21.67;;;;;;;-142.75;100.00;78131.59;5013355;28;20096;-69
2021/10/18 06:46:54;;;;;;;36.37;21.03;;;;;;;-142.75;100.00;78137.50;5012334;28;20034;-69
2021/10/18 06:49:20;;;;;;;37.70;22.90;;;;;;;-142.75;100.00;78127.66;5013941;28;20288;-68
2021/10/18 06:51:51;;;;;;;39.97;23.75;;;;;;;-142.75;100.00;78117.81;5013334;28;20284;-69
2021/10/18 06:54:17;;;;;;;31.07;19.70;;;;;;;-142.75;100.00;78121.75;5013129;28;20025;-69
2021/10/18 06:56:45;;;;;;;32.97;20.13;;;;;;;-142.75;100.00;78098.13;5013474;28;20036;-69
2021/10/18 06:59:12;;;;;;;32.22;19.45;;;;;;;-142.75;100.00;78100.09;5013452;28;20025;-69
2021/10/18 07:01:38;;;;;;;30.17;19.73;;;;;;;-142.75;100.00;78094.19;5013327;28;20025;-66
2021/10/18 07:04:04;;;;;;;27.50;18.58;;;;;;;-142.75;100.00;78090.25;5012762;28;20026;-67
2021/10/18 07:06:29;;;;;;;33.38;19.98;;;;;;;-142.75;100.00;78076.47;5013136;28;20030;-67
2021/10/18 07:08:54;;;;;;;37.73;22.03;;;;;;;-142.75;100.00;78074.50;5013215;28;20472;-67
2021/10/18 07:11:20;;;;;;;32.63;20.03;;;;;;;-142.75;100.00;78066.63;5012887;28;20341;-67
2021/10/18 07:13:45;;;;;;;31.70;19.92;;;;;;;-142.75;100.00;78072.53;5012465;28;20033;-66
2021/10/18 07:16:10;;;;;;;39.45;20.98;;;;;;;-142.75;100.00;78062.69;5012650;28;20391;-67
2021/10/18 07:18:35;;;;;;;33.05;20.77;;;;;;;-142.75;100.00;78068.59;5012613;28;20045;-67
2021/10/18 07:21:01;;;;;;;33.47;22.17;;;;;;;-142.75;100.00;78066.63;5012499;28;20432;-67
2021/10/18 07:23:28;;;;;;;31.80;19.47;;;;;;;-142.75;100.00;78064.66;5011989;28;20269;-67
2021/10/18 07:25:53;;;;;;;31.02;19.02;;;;;;;-142.75;100.00;78062.69;5012212;28;20260;-66
2021/10/18 07:28:18;;;;;;;30.33;19.63;;;;;;;-142.75;100.00;78062.69;5012558;28;20030;-67
2021/10/18 07:30:45;;;;;;;33.27;20.73;;;;;;;-142.75;100.00;78054.81;5012414;28;20331;-68
2021/10/18 07:33:11;;;;;;;40.42;22.23;;;;;;;-142.75;100.00;78050.84;5012248;28;20276;-68
2021/10/18 07:35:36;;;;;;;45.20;24.40;;;;;;;-142.75;100.00;78031.16;5010448;28;20044;-69
2021/10/18 07:38:04;;;;;;;32.30;19.38;;;;;;;-142.75;100.00;78027.22;5011065;28;20284;-68
2021/10/18 07:40:30;;;;;;;35.17;18.75;;;;;;;-142.75;100.00;78033.13;5012403;28;20392;-69
2021/10/18 07:42:56;;;;;;;34.28;20.02;;;;;;;-142.75;100.00;78019.34;5011926;28;20030;-68
2021/10/18 07:45:22;;;;;;;29.90;19.60;;;;;;;-142.75;100.00;78023.28;5010690;28;20052;-68
2021/10/18 07:47:47;;;;;;;31.90;19.38;;;;;;;-142.75;100.00;78007.53;5012095;28;20630;-68
2021/10/18 07:50:14;;;;;;;33.85;18.98;;;;;;;-142.75;100.00;77995.72;5010609;28;20026;-68
2021/10/18 07:52:42;;;;;;;33.65;20.33;;;;;;;-142.75;100.00;78001.63;5010410;28;20549;-68
2021/10/18 07:55:18;;;;;;;34.65;19.75;;;;;;;-142.75;100.00;78009.50;5011593;28;20092;-68
2021/10/18 07:57:46;;;;;;;33.20;18.67;;;;;;;-142.75;100.00;77999.66;5011946;28;20079;-68
2021/10/18 08:00:13;;;;;;;32.85;19.48;;;;;;;-142.75;100.00;78003.59;5011539;28;20038;-69
2021/10/18 08:02:39;;;;;;;28.45;18.17;;;;;;;-142.75;100.00;77989.81;5011885;28;20091;-68
2021/10/18 08:05:05;;;;;;;31.38;18.48;;;;;;;-142.75;100.00;77974.06;5011311;28;20029;-68
2021/10/18 08:07:32;;;;;;;31.77;19.95;;;;;;;-142.75;100.00;77962.25;5011441;28;20524;-68
2021/10/18 08:09:58;;;;;;;33.28;19.73;;;;;;;-142.75;100.00;77964.22;5011704;28;20025;-68
2021/10/18 08:12:24;;;;;;;29.92;19.15;;;;;;;-142.75;100.00;77960.28;5011624;28;20117;-68
2021/10/18 08:14:49;;;;;;;30.10;18.90;;;;;;;-142.75;100.00;77940.59;5011145;28;20587;-66
2021/10/18 08:17:14;;;;;;;32.30;19.13;;;;;;;-142.75;100.00;77934.69;5011724;28;20292;-67
2021/10/18 08:19:39;;;;;;;34.37;19.20;;;;;;;-142.75;100.00;77944.53;5011626;28;20368;-67
2021/10/18 08:22:05;;;;;;;30.05;19.85;;;;;;;-142.75;100.00;77932.72;5011815;28;20273;-66
2021/10/18 08:24:30;;;;;;;29.75;18.55;;;;;;;-142.75;100.00;77930.75;5009870;28;20028;-66
2021/10/18 08:26:55;;;;;;;28.33;18.33;;;;;;;-142.75;100.00;77926.81;5011931;28;20050;-66
2021/10/18 08:29:20;;;;;;;28.23;18.10;;;;;;;-142.75;100.00;77924.84;5012045;28;20272;-65
2021/10/18 08:31:46;;;;;;;32.90;19.15;;;;;;;-142.75;100.00;77922.88;5011608;28;20036;-66
2021/10/18 08:34:11;;;;;;;28.73;19.38;;;;;;;-142.75;100.00;77924.84;5012110;28;20114;-66
2021/10/18 08:36:37;;;;;;;35.55;20.45;;;;;;;-142.75;100.00;77936.66;5031313;28;20406;-68
2021/10/18 08:42:02;;;;;;;32.85;19.05;;;;;;;-142.75;100.00;77920.91;5031427;28;20525;-69
2021/10/18 08:44:28;;;;;;;32.90;18.77;;;;;;;-142.75;100.00;77909.06;5030981;28;20026;-67
2021/10/18 08:46:53;;;;;;;36.77;18.93;;;;;;;-142.75;100.00;77893.31;5030523;28;20026;-67
2021/10/18 08:49:22;;;;;;;28.48;17.65;;;;;;;-142.75;100.00;77822.44;5031096;28;20284;-67
2021/10/18 08:51:48;;;;;;;32.17;19.50;;;;;;;-142.75;98.91;77743.69;5017580;28;20050;-67
2021/10/18 08:54:15;;;;;;;30.75;18.23;;;;;;;-142.75;94.52;77666.88;5011527;28;20118;-67
2021/10/18 08:56:40;;;;;;;29.52;17.83;;;;;;;-142.75;89.69;77592.06;5011326;28;20028;-66
2021/10/18 08:59:06;;;;;;;28.58;17.60;;;;;;;-142.75;86.35;77566.47;5011188;28;20025;-67
2021/10/18 09:01:49;;;;;;;28.85;17.33;;;;;;;-142.75;85.87;77603.88;5009852;28;20125;-67
2021/10/18 09:04:26;;;;;;;28.65;17.27;;;;;;;-142.75;86.71;77649.16;5010550;28;20075;-67
2021/10/18 09:06:59;;;;;;;26.45;17.23;;;;;;;-142.75;88.53;77696.41;5011249;28;20049;-68
2021/10/18 09:09:27;;;;;;;30.30;18.00;;;;;;;-142.75;91.66;77694.44;5011098;28;20038;-67
2021/10/18 09:11:58;;;;;;;32.38;19.33;;;;;;;-142.75;92.67;77696.41;5011009;28;20034;-69
2021/10/18 09:14:24;;;;;;;31.05;16.65;;;;;;;-142.75;92.20;77708.22;5010685;28;20101;-67
2021/10/18 09:16:50;;;;;;;26.33;16.83;;;;;;;-142.75;91.95;77729.88;5011030;28;20532;-68
2021/10/18 09:19:17;;;;;;;29.38;16.67;;;;;;;-142.75;92.65;77723.97;5010985;28;20033;-68
2021/10/18 09:21:48;;;;;;;26.98;17.30;;;;;;;-142.75;92.71;77708.22;5011068;28;20022;-67
2021/10/18 09:24:33;;;;;;;30.08;18.33;;;;;;;-142.75;94.23;77706.25;5010240;28;20414;-68
2021/10/18 09:27:01;;;;;;;29.63;17.92;;;;;;;-142.75;95.27;77702.31;4993767;28;20504;-69
2021/10/18 09:29:47;;;;;;;30.65;17.98;;;;;;;-142.75;98.76;77700.34;5010941;28;20484;-68
2021/10/18 09:32:43;;;;;;;27.75;18.10;;;;;;;-142.75;97.96;77688.53;5010247;28;20123;-67
2021/10/18 09:35:12;;;;;;;30.98;19.70;;;;;;;-142.75;99.31;77678.69;4989935;28;20033;-68
2021/10/18 09:37:42;;;;;;;30.73;18.15;;;;;;;-142.75;99.10;77676.72;5011050;28;20466;-66
2021/10/18 09:40:08;;;;;;;26.75;18.13;;;;;;;-142.75;98.14;77690.50;5010750;28;20431;-66
2021/10/18 09:42:33;;;;;;;;;;;;;;;-142.75;97.79;77678.69;5011314;28;20022;-66
2021/10/18 10:52:41;;;;;;;25.23;15.93;;;;;;;-142.75;83.64;77460.13;5033642;28;20075;-66
2021/10/18 10:55:31;;;;;;;24.70;15.35;;;;;;;-142.75;84.83;77450.28;5032681;28;20483;-67
2021/10/18 10:57:59;;;;;;;25.13;15.98;;;;;;;-142.75;86.41;77458.16;5033140;28;20022;-67
2021/10/18 11:00:35;;;;;;;22.10;14.20;;;;;;;-142.75;85.71;77464.09;5032927;28;20029;-69
2021/10/18 11:03:35;;;;;;;23.87;14.27;;;;;;;-142.75;84.03;77462.13;5033099;28;20083;-69
2021/10/18 11:06:05;;;;;;;24.55;13.95;;;;;;;-142.75;84.83;77468.03;5031192;28;20142;-66
2021/10/18 11:08:38;;;;;;;28.98;14.93;;;;;;;-142.75;84.56;77464.09;5031596;28;20029;-68
2021/10/18 11:11:12;;;;;;;27.35;15.75;;;;;;;-142.75;86.42;77448.34;5032287;28;20517;-68
2021/10/18 11:13:50;;;;;;;36.28;15.55;;;;;;;-142.75;87.68;77454.25;5032836;28;20395;-68
2021/10/18 11:16:22;;;;;;;21.88;14.50;;;;;;;-142.75;87.97;77475.91;5032782;28;20037;-68
2021/10/18 11:18:50;;;;;;;35.90;16.42;;;;;;;-142.75;89.94;77471.97;5032377;28;20065;-69
2021/10/18 11:21:25;;;;;;;26.45;15.18;;;;;;;-142.75;88.28;77501.50;5031164;28;20114;-68
2021/10/18 11:24:06;;;;;;;30.60;15.75;;;;;;;-142.75;88.96;77489.69;5032283;28;20108;-68
2021/10/18 11:26:35;;;;;;;26.17;15.85;;;;;;;-142.75;89.73;77487.72;5032699;28;20025;-68
2021/10/18 11:29:02;;;;;;;25.75;14.82;;;;;;;-142.75;90.71;77473.94;5032617;28;20033;-68
2021/10/18 11:31:37;;;;;;;21.27;14.30;;;;;;;-142.75;89.92;77485.75;5032511;28;20040;-68
2021/10/18 11:34:09;;;;;;;22.20;14.77;;;;;;;-142.75;90.11;77487.72;5031342;28;20068;-68
2021/10/18 11:36:37;;;;;;;23.83;14.75;;;;;;;-142.75;91.82;77460.13;5012945;28;20475;-68
2021/10/18 11:39:21;;;;;;;25.13;14.48;;;;;;;-142.75;90.08;77446.34;5012352;28;20140;-68
2021/10/18 11:41:58;;;;;;;30.48;14.98;;;;;;;-142.75;91.33;77448.34;5032462;28;20121;-68
2021/10/18 11:44:42;;;;;;;24.48;13.93;;;;;;;-142.75;90.82;77436.50;5031879;28;20442;-68
2021/10/18 11:47:25;;;;;;;23.63;14.43;;;;;;;-142.75;88.67;77442.41;5030987;28;20025;-68
2021/10/18 11:50:27;;;;;;;22.85;13.38;;;;;;;-142.75;87.94;77418.78;5031975;28;20034;-68
2021/10/18 11:53:17;;;;;;;21.73;14.05;;;;;;;-142.75;88.21;77414.84;5031814;28;20037;-69
2021/10/18 11:55:46;;;;;;;23.75;15.02;;;;;;;-142.75;88.70;77410.91;5019270;28;20049;-68
2021/10/18 11:58:22;;;;;;;22.77;13.73;;;;;;;-142.75;88.48;77408.94;5032213;28;20032;-68
2021/10/18 12:01:05;;;;;;;22.70;13.60;;;;;;;-142.75;89.63;77408.94;5030519;28;20037;-68
2021/10/18 12:03:33;;;;;;;22.75;14.02;;;;;;;-142.75;90.50;77408.94;5032046;28;20421;-68
2021/10/18 12:06:01;;;;;;;22.95;13.02;;;;;;;-142.75;90.42;77424.69;5047087;22;20427;-69
2021/10/18 12:08:30;;;;;;;25.92;13.82;;;;;;;-142.75;89.16;77420.75;5029128;28;20048;-69